Time;durP1;ratioP1;P1;durP2;ratioP2;P2;SDS_P1;SDS_P2;PMS_P1;PMS_P2;Temp;Humidity;BMP_temperature;BMP_pressure;BME280_temperature;BME280_humidity;BME280_pressure;Samples;Min_cycle;Max_cycle;Signal;HPM_P1;HPM_P2
2022/01/16 00:00:24;;;;;;;53.85;23.02;;;;;;;1.29;100.00;102316.91;5071795;28;20044;-51
2022/01/16 00:05:43;;;;;;;49.83;21.63;;;;;;;1.29;100.00;102310.88;5049217;28;20135;-52
2022/01/16 00:08:13;;;;;;;49.97;21.30;;;;;;;1.33;100.00;102310.84;5071490;28;20052;-54
2022/01/16 00:10:42;;;;;;;53.17;22.60;;;;;;;1.33;100.00;102313.44;5071418;28;20106;-52
2022/01/16 00:13:10;;;;;;;49.60;22.00;;;;;;;1.32;100.00;102313.44;5067676;28;20064;-54
2022/01/16 00:15:38;;;;;;;47.42;21.30;;;;;;;1.30;100.00;102316.03;5067094;28;20415;-54
2022/01/16 00:18:18;;;;;;;50.42;22.00;;;;;;;1.29;100.00;102323.81;5072789;28;20048;-53
2022/01/16 00:20:46;;;;;;;52.05;23.27;;;;;;;1.24;100.00;102315.19;5075356;28;20446;-54
2022/01/16 00:23:23;;;;;;;54.67;23.58;;;;;;;1.29;100.00;102308.28;5072472;28;20454;-53
2022/01/16 00:25:52;;;;;;;47.80;20.10;;;;;;;1.30;100.00;102300.50;5071756;28;20049;-52
2022/01/16 00:28:21;;;;;;;53.25;22.98;;;;;;;1.25;100.00;102307.41;5075119;28;20070;-53
2022/01/16 00:30:50;;;;;;;50.75;22.55;;;;;;;1.26;100.00;102305.69;5075160;28;20106;-52
2022/01/16 00:33:19;;;;;;;53.38;21.83;;;;;;;1.24;100.00;102310.91;5075172;28;20059;-55
2022/01/16 00:35:47;;;;;;;49.45;21.75;;;;;;;1.23;100.00;102308.28;5074916;28;20045;-52
2022/01/16 00:38:17;;;;;;;50.40;22.33;;;;;;;1.20;100.00;102311.78;5075171;28;20069;-52
2022/01/16 00:40:45;;;;;;;52.05;22.90;;;;;;;1.16;100.00;102310.91;5074066;28;20033;-53
2022/01/16 00:43:13;;;;;;;52.05;21.98;;;;;;;1.22;100.00;102315.19;5070879;28;20056;-52
2022/01/16 00:45:42;;;;;;;52.90;24.10;;;;;;;1.17;100.00;102302.28;5072802;28;20052;-54
2022/01/16 00:48:10;;;;;;;56.80;23.15;;;;;;;1.14;100.00;102314.34;5075034;28;20036;-54
2022/01/16 00:50:38;;;;;;;54.85;22.52;;;;;;;1.13;100.00;102292.78;5074794;28;20055;-54
2022/01/16 00:53:07;;;;;;;53.75;22.17;;;;;;;1.09;100.00;102304.00;5073563;28;20079;-54
2022/01/16 00:55:38;;;;;;;57.80;24.15;;;;;;;1.14;100.00;102309.19;5074786;28;20052;-53
2022/01/16 00:58:06;;;;;;;60.05;25.25;;;;;;;1.07;100.00;102281.56;5072102;28;20513;-54
2022/01/16 01:00:34;;;;;;;55.03;23.80;;;;;;;1.05;100.00;102272.91;5067817;28;20036;-54
2022/01/16 01:03:05;;;;;;;56.72;24.83;;;;;;;1.01;100.00;102277.25;5073770;28;20036;-53
2022/01/16 01:05:34;;;;;;;54.42;24.42;;;;;;;1.08;100.00;102259.94;5073260;28;20135;-54
2022/01/16 01:08:04;;;;;;;53.30;25.30;;;;;;;1.03;100.00;102267.72;5070954;28;20044;-53
2022/01/16 01:10:35;;;;;;;54.42;22.90;;;;;;;1.03;100.00;102259.97;5071826;28;20123;-53
2022/01/16 01:13:10;;;;;;;51.85;23.35;;;;;;;1.06;100.00;102285.84;5074335;28;20045;-53
2022/01/16 01:15:45;;;;;;;56.13;24.73;;;;;;;0.98;100.00;102275.53;5073869;28;20044;-53
2022/01/16 01:18:14;;;;;;;55.47;23.52;;;;;;;1.04;100.00;102287.59;5070494;28;20048;-54
2022/01/16 01:20:43;;;;;;;59.00;25.27;;;;;;;0.99;100.00;102279.81;5072000;28;20068;-53
2022/01/16 01:23:12;;;;;;;52.20;23.42;;;;;;;0.96;100.00;102290.19;5071994;28;20045;-53
2022/01/16 01:25:42;;;;;;;54.17;24.80;;;;;;;1.00;100.00;102263.41;5069889;28;20048;-53
2022/01/16 01:28:12;;;;;;;52.67;24.15;;;;;;;1.01;100.00;102272.94;5073156;28;20536;-53
2022/01/16 01:30:42;;;;;;;52.33;24.83;;;;;;;0.93;100.00;102286.78;5072647;28;20479;-53
2022/01/16 01:33:13;;;;;;;50.88;23.67;;;;;;;0.96;100.00;102286.75;5070202;28;20519;-51
2022/01/16 01:35:41;;;;;;;60.47;24.00;;;;;;;0.93;100.00;102285.03;5071866;28;20050;-52
2022/01/16 01:38:11;;;;;;;56.63;23.80;;;;;;;0.86;100.00;102269.50;5073939;28;20044;-52
2022/01/16 01:40:41;;;;;;;54.72;22.17;;;;;;;0.83;100.00;102210.78;5073834;28;20040;-52
2022/01/16 01:51:31;;;;;;;51.63;21.45;;;;;;;0.89;100.00;102204.75;5072922;28;20040;-52
2022/01/16 01:54:00;;;;;;;45.90;22.25;;;;;;;0.88;100.00;102219.41;5069882;28;20511;-52
2022/01/16 01:56:29;;;;;;;53.10;22.17;;;;;;;0.84;100.00;102234.09;5071472;28;20083;-54
2022/01/16 01:59:00;;;;;;;54.92;23.20;;;;;;;0.81;100.00;102228.94;5073565;28;20049;-52
2022/01/16 02:01:31;;;;;;;55.58;23.35;;;;;;;0.79;100.00;102251.38;5067024;28;20053;-51
2022/01/16 02:04:00;;;;;;;54.25;22.13;;;;;;;0.81;100.00;102252.25;5070485;28;20094;-52
2022/01/16 02:06:30;;;;;;;55.90;22.27;;;;;;;0.76;100.00;102261.75;5073533;28;20028;-53
2022/01/16 02:09:00;;;;;;;52.58;23.67;;;;;;;0.79;100.00;102256.56;5073435;28;20123;-54
2022/01/16 02:11:31;;;;;;;50.83;22.60;;;;;;;0.86;100.00;102272.09;5073221;28;20490;-51
2022/01/16 02:14:08;;;;;;;58.30;22.48;;;;;;;0.87;100.00;102269.50;5072733;28;20079;-50
2022/01/16 02:28:06;;;;;;;45.53;20.27;;;;;;;0.87;100.00;102289.38;5070102;28;20045;-53
2022/01/16 02:34:29;;;;;;;51.17;22.60;;;;;;;0.75;100.00;102291.13;5070434;28;20078;-51
2022/01/16 02:36:21;;;;;;;46.90;20.90;;;;;;;0.77;100.00;102289.38;5072730;28;20041;-54
2022/01/16 02:38:51;;;;;;;48.08;22.33;;;;;;;0.69;100.00;102277.31;5069267;28;20055;-52
2022/01/16 02:41:19;;;;;;;45.63;21.25;;;;;;;0.75;100.00;102285.94;5068226;28;20088;-54
2022/01/16 02:43:50;;;;;;;53.13;21.13;;;;;;;0.71;100.00;102284.22;5072695;28;20048;-53
2022/01/16 02:46:36;;;;;;;49.72;23.85;;;;;;;0.66;100.00;102275.56;5070454;28;20131;-52
2022/01/16 02:49:21;;;;;;;46.90;21.40;;;;;;;0.63;100.00;102266.09;5068251;28;20045;-51
2022/01/16 02:51:52;;;;;;;54.10;22.95;;;;;;;0.66;100.00;102260.88;5071842;28;20495;-53
2022/01/16 02:54:22;;;;;;;52.92;22.92;;;;;;;0.76;100.00;102253.97;5068838;28;20048;-53
2022/01/16 02:56:50;;;;;;;47.85;22.38;;;;;;;0.77;100.00;102254.84;5070861;28;20562;-51
2022/01/16 02:59:20;;;;;;;46.40;22.90;;;;;;;0.71;100.00;102258.31;5072390;28;20048;-50
2022/01/16 03:01:48;;;;;;;50.63;22.73;;;;;;;0.75;100.00;102249.69;5068394;28;20040;-52
2022/01/16 03:04:17;;;;;;;50.25;22.92;;;;;;;0.71;100.00;102252.25;5069070;28;20046;-53
2022/01/16 03:06:45;;;;;;;47.97;22.50;;;;;;;0.75;100.00;102246.19;5072454;28;20131;-52
2022/01/16 03:09:15;;;;;;;49.28;22.13;;;;;;;0.77;100.00;102250.50;5072664;28;20041;-51
2022/01/16 03:11:47;;;;;;;53.45;21.88;;;;;;;0.83;100.00;102239.28;5072181;28;20170;-52
2022/01/16 03:14:17;;;;;;;53.42;21.92;;;;;;;0.80;100.00;102234.97;5072163;28;20049;-51
2022/01/16 03:16:49;;;;;;;53.13;21.65;;;;;;;0.84;100.00;102228.06;5072435;28;20044;-54
2022/01/16 03:22:06;;;;;;;43.20;19.58;;;;;;;0.89;100.00;102223.72;5071823;28;20078;-53
2022/01/16 03:24:37;;;;;;;50.70;22.00;;;;;;;0.87;100.00;102235.81;5072003;28;20068;-53
2022/01/16 03:27:09;;;;;;;51.95;20.30;;;;;;;0.86;100.00;102220.28;5072112;28;20596;-51
2022/01/16 03:29:39;;;;;;;53.83;21.67;;;;;;;0.96;100.00;102216.81;5072294;28;20066;-52
2022/01/16 03:32:10;;;;;;;52.50;21.77;;;;;;;0.92;100.00;102222.88;5070069;28;20037;-52
2022/01/16 03:34:39;;;;;;;52.67;22.30;;;;;;;0.98;100.00;102223.72;5068661;28;20369;-53
2022/01/16 03:37:08;;;;;;;51.70;21.17;;;;;;;1.10;100.00;102214.16;5070789;28;20040;-53
2022/01/16 03:39:37;;;;;;;48.38;21.58;;;;;;;1.07;100.00;102209.00;5072359;28;20052;-50
2022/01/16 03:42:08;;;;;;;48.38;21.85;;;;;;;1.06;100.00;102208.13;5071637;28;20451;-53
2022/01/16 03:44:36;;;;;;;50.25;22.38;;;;;;;1.09;100.00;102207.25;5068404;28;20131;-53
2022/01/16 03:47:05;;;;;;;48.40;20.45;;;;;;;1.08;100.00;102209.00;5065796;28;20075;-54
2022/01/16 03:49:34;;;;;;;53.75;22.52;;;;;;;1.05;100.00;102209.00;5070659;28;20398;-52
2022/01/16 03:52:02;;;;;;;50.97;21.55;;;;;;;1.13;100.00;102203.78;5073071;28;20079;-51
2022/01/16 03:54:31;;;;;;;56.92;23.50;;;;;;;1.11;100.00;102201.19;5074969;28;20059;-52
2022/01/16 03:57:00;;;;;;;61.92;24.38;;;;;;;1.01;100.00;102199.53;5072022;28;20495;-54
2022/01/16 03:59:29;;;;;;;57.33;21.00;;;;;;;1.01;100.00;102195.19;5073850;28;20102;-53
2022/01/16 04:01:58;;;;;;;54.15;22.13;;;;;;;1.00;100.00;102203.81;5072271;28;20064;-54
2022/01/16 04:04:26;;;;;;;53.13;22.02;;;;;;;1.06;100.00;102192.56;5071939;28;20407;-51
2022/01/16 04:06:55;;;;;;;63.28;23.55;;;;;;;1.00;100.00;102201.25;5075056;28;20473;-52
2022/01/16 04:09:23;;;;;;;57.25;22.65;;;;;;;1.03;100.00;102202.09;5075610;28;20434;-54
2022/01/16 04:11:54;;;;;;;58.85;24.20;;;;;;;1.09;100.00;102191.69;5075536;28;20036;-52
2022/01/16 04:15:31;;;;;;;56.95;23.88;;;;;;;1.03;100.00;102192.59;5071630;28;20063;-54
2022/01/16 04:17:15;;;;;;;62.75;23.85;;;;;;;0.99;100.00;102186.56;5071583;28;20098;-52
2022/01/16 04:19:44;;;;;;;60.65;23.55;;;;;;;0.95;100.00;102189.16;5075368;28;20076;-54
2022/01/16 04:22:12;;;;;;;60.80;22.58;;;;;;;0.98;100.00;102184.84;5075379;28;20499;-53
2022/01/16 04:24:41;;;;;;;65.95;22.33;;;;;;;1.05;100.00;102187.41;5075394;28;20075;-53
2022/01/16 04:27:11;;;;;;;58.10;21.98;;;;;;;1.05;100.00;102183.09;5075275;28;20044;-53
2022/01/16 04:29:39;;;;;;;52.60;21.73;;;;;;;1.11;100.00;102188.25;5075176;28;20052;-51
2022/01/16 04:32:08;;;;;;;56.08;22.48;;;;;;;1.12;100.00;102191.72;5072215;28;20135;-53
2022/01/16 04:34:38;;;;;;;58.15;23.48;;;;;;;1.10;100.00;102191.69;5071052;28;20471;-52
2022/01/16 04:37:06;;;;;;;55.63;21.45;;;;;;;1.13;100.00;102194.28;5073503;28;20049;-53
2022/01/16 04:39:36;;;;;;;54.65;22.73;;;;;;;1.17;100.00;102184.75;5074969;28;20048;-51
2022/01/16 04:44:52;;;;;;;53.85;22.08;;;;;;;1.16;100.00;102198.59;5075077;28;20119;-52
2022/01/16 04:47:21;;;;;;;58.78;23.58;;;;;;;1.11;100.00;102190.84;5075199;28;20355;-52
2022/01/16 04:49:50;;;;;;;63.15;25.38;;;;;;;1.15;100.00;102197.72;5074971;28;20406;-53
2022/01/16 04:52:18;;;;;;;56.15;23.60;;;;;;;1.17;100.00;102200.31;5071569;28;20868;-52
2022/01/16 04:54:46;;;;;;;57.17;24.15;;;;;;;1.15;100.00;102197.72;5071210;28;20037;-52
2022/01/16 04:57:16;;;;;;;54.90;24.52;;;;;;;1.18;100.00;102195.13;5074955;28;20394;-52
2022/01/16 04:59:44;;;;;;;54.22;23.55;;;;;;;1.22;100.00;102192.53;5074651;28;20055;-54
2022/01/16 05:02:13;;;;;;;55.10;24.27;;;;;;;1.22;100.00;102182.16;5074577;28;20413;-53
2022/01/16 05:04:41;;;;;;;58.38;26.33;;;;;;;1.23;100.00;102179.56;5070279;28;20056;-51
2022/01/16 05:07:10;;;;;;;57.45;25.98;;;;;;;1.20;100.00;102181.28;5070047;28;20128;-52
2022/01/16 05:09:38;;;;;;;53.22;25.80;;;;;;;1.24;100.00;102172.63;5074118;28;20082;-54
2022/01/16 05:12:12;;;;;;;48.70;23.25;;;;;;;1.26;100.00;102156.22;5074543;28;20040;-54
2022/01/16 05:17:25;;;;;;;59.72;26.60;;;;;;;1.29;100.00;102147.56;5068770;28;20380;-53
2022/01/16 05:19:53;;;;;;;50.70;24.33;;;;;;;1.30;100.00;102152.72;5073557;28;20041;-54
2022/01/16 05:22:23;;;;;;;62.13;26.05;;;;;;;1.33;100.00;102151.84;5070805;28;20044;-55
2022/01/16 05:24:51;;;;;;;54.38;24.02;;;;;;;1.33;100.00;102155.28;5072247;28;20048;-52
2022/01/16 05:27:19;;;;;;;55.10;25.45;;;;;;;1.36;100.00;102151.81;5071014;28;20060;-54
2022/01/16 05:29:47;;;;;;;59.00;25.20;;;;;;;1.44;100.00;102146.59;5068748;28;20529;-52
2022/01/16 05:32:16;;;;;;;61.72;25.27;;;;;;;1.47;100.00;102154.34;5074200;28;20037;-51
2022/01/16 05:34:44;;;;;;;50.70;23.50;;;;;;;1.50;100.00;102146.56;5074361;28;20087;-53
2022/01/16 05:37:13;;;;;;;61.13;25.83;;;;;;;1.50;100.00;102157.81;5074071;28;20090;-51
2022/01/16 05:39:44;;;;;;;57.55;27.15;;;;;;;1.48;100.00;102162.13;5071216;28;20106;-55
2022/01/16 05:42:13;;;;;;;53.40;24.73;;;;;;;1.51;100.00;102169.91;5069766;28;20040;-54
2022/01/16 05:44:41;;;;;;;63.25;26.98;;;;;;;1.46;100.00;102156.09;5073421;28;20518;-51
2022/01/16 05:47:12;;;;;;;60.28;28.30;;;;;;;1.50;100.00;102155.22;5073577;28;20051;-54
2022/01/16 05:49:42;;;;;;;61.67;26.00;;;;;;;1.52;100.00;102163.81;5071748;28;20048;-54
2022/01/16 05:52:12;;;;;;;63.58;28.38;;;;;;;1.49;100.00;102161.25;5069948;28;20570;-54
2022/01/16 05:54:40;;;;;;;58.88;27.48;;;;;;;1.52;100.00;102156.03;5072618;28;20048;-52
2022/01/16 05:57:10;;;;;;;61.90;26.55;;;;;;;1.49;100.00;102155.22;5073584;28;20094;-52
2022/01/16 05:59:42;;;;;;;65.63;27.83;;;;;;;1.52;100.00;102153.44;5071303;28;20064;-51
2022/01/16 06:02:11;;;;;;;69.63;31.13;;;;;;;1.51;100.00;102150.88;5068701;28;20044;-52
2022/01/16 06:04:39;;;;;;;67.50;29.52;;;;;;;1.54;100.00;102152.59;5071837;28;20055;-53
2022/01/16 06:07:07;;;;;;;68.47;28.40;;;;;;;1.66;100.00;102157.69;5073296;28;20060;-53
2022/01/16 06:09:35;;;;;;;70.18;30.95;;;;;;;1.64;100.00;102149.06;5072963;28;20056;-51
2022/01/16 06:12:04;;;;;;;66.82;30.33;;;;;;;1.61;100.00;102162.03;5071944;28;20538;-53
2022/01/16 06:14:34;;;;;;;63.03;29.50;;;;;;;1.62;100.00;102163.78;5067610;28;20542;-54
2022/01/16 06:17:02;;;;;;;65.88;27.85;;;;;;;1.62;100.00;102162.06;5070261;28;20052;-52
2022/01/16 06:19:30;;;;;;;72.47;29.10;;;;;;;1.58;100.00;102162.06;5072413;28;20048;-50
2022/01/16 06:21:59;;;;;;;70.25;29.48;;;;;;;1.55;100.00;102159.50;5072627;28;20044;-53
2022/01/16 06:24:27;;;;;;;67.22;29.65;;;;;;;1.52;100.00;102155.19;5072843;28;20060;-53
2022/01/16 06:26:55;;;;;;;67.07;29.65;;;;;;;1.59;100.00;102167.25;5073047;28;20048;-52
2022/01/16 06:29:24;;;;;;;64.13;31.25;;;;;;;1.57;100.00;102162.94;5072170;28;20044;-53
2022/01/16 06:31:53;;;;;;;69.57;30.50;;;;;;;1.62;100.00;102167.25;5072035;28;20052;-55
2022/01/16 06:34:21;;;;;;;63.65;28.88;;;;;;;1.60;100.00;102168.13;5072486;28;20059;-54
2022/01/16 06:36:49;;;;;;;68.68;31.35;;;;;;;1.64;100.00;102175.00;5072484;28;20853;-54
2022/01/16 06:39:18;;;;;;;71.72;30.92;;;;;;;1.61;100.00;102177.59;5072565;28;20045;-55
2022/01/16 06:41:46;;;;;;;67.72;30.65;;;;;;;1.66;100.00;102183.63;5070684;28;20123;-54
2022/01/16 06:44:34;;;;;;;70.10;31.13;;;;;;;1.62;100.00;102187.13;5066847;28;20071;-52
2022/01/16 06:47:04;;;;;;;67.90;29.55;;;;;;;1.67;100.00;102186.22;5070815;28;20048;-52
2022/01/16 06:49:32;;;;;;;64.30;31.50;;;;;;;1.62;100.00;102182.81;5072223;28;20499;-52
2022/01/16 06:52:00;;;;;;;66.05;29.85;;;;;;;1.62;100.00;102187.13;5072275;28;20064;-54
2022/01/16 06:54:28;;;;;;;65.13;29.55;;;;;;;1.64;100.00;102187.97;5071063;28;20388;-52
2022/01/16 06:56:56;;;;;;;74.25;30.65;;;;;;;1.66;100.00;102184.50;5072293;28;20044;-52
2022/01/16 06:59:25;;;;;;;57.58;28.63;;;;;;;1.73;100.00;102187.91;5068217;28;20045;-57
2022/01/16 07:01:53;;;;;;;65.22;32.53;;;;;;;1.67;100.00;102200.91;5067254;28;20406;-56
2022/01/16 07:04:22;;;;;;;66.22;30.60;;;;;;;1.77;100.00;102196.53;5072193;28;20391;-57
2022/01/16 07:06:50;;;;;;;68.20;31.52;;;;;;;1.70;100.00;102200.91;5072058;28;20056;-56
2022/01/16 07:09:18;;;;;;;66.15;28.50;;;;;;;1.70;100.00;102195.72;5072172;28;20094;-57
2022/01/16 07:11:47;;;;;;;66.10;31.35;;;;;;;1.72;100.00;102198.28;5072385;28;20082;-57
2022/01/16 07:14:16;;;;;;;67.63;32.38;;;;;;;1.76;100.00;102202.59;5072068;28;20048;-57
2022/01/16 07:16:44;;;;;;;63.15;31.40;;;;;;;1.78;100.00;102204.31;5072101;28;20059;-56
2022/01/16 07:19:12;;;;;;;68.55;31.63;;;;;;;1.79;100.00;102198.25;5072085;28;20514;-57
2022/01/16 07:21:41;;;;;;;66.85;32.17;;;;;;;1.76;100.00;102206.06;5072109;28;20053;-56
2022/01/16 07:24:15;;;;;;;59.75;29.67;;;;;;;1.80;100.00;102219.84;5071942;28;20062;-57
2022/01/16 07:26:44;;;;;;;61.30;31.08;;;;;;;1.83;100.00;102222.44;5071404;28;20055;-57
2022/01/16 07:29:13;;;;;;;71.97;29.52;;;;;;;1.84;100.00;102219.84;5072030;28;20044;-57
2022/01/16 07:31:41;;;;;;;62.08;30.30;;;;;;;1.89;100.00;102226.72;5072072;28;20049;-57
2022/01/16 07:34:10;;;;;;;61.10;30.65;;;;;;;1.87;100.00;102234.53;5072087;28;20090;-57
2022/01/16 07:36:39;;;;;;;61.50;29.67;;;;;;;1.88;100.00;102227.59;5071874;28;20567;-57
2022/01/16 07:39:08;;;;;;;59.78;30.55;;;;;;;1.95;100.00;102242.25;5071747;28;20072;-57
2022/01/16 07:41:36;;;;;;;63.22;30.67;;;;;;;1.91;100.00;102251.81;5071736;28;20054;-57
2022/01/16 07:44:05;;;;;;;59.60;29.85;;;;;;;1.91;100.00;102256.09;5071750;28;20048;-57
2022/01/16 07:46:33;;;;;;;58.75;29.95;;;;;;;1.94;100.00;102254.38;5071780;28;20048;-57
2022/01/16 07:49:02;;;;;;;61.83;30.20;;;;;;;1.90;100.00;102244.88;5071701;28;20483;-57
2022/01/16 07:51:32;;;;;;;56.85;29.45;;;;;;;1.97;100.00;102248.28;5071546;28;20067;-57
2022/01/16 07:54:00;;;;;;;54.72;27.92;;;;;;;1.98;100.00;102250.88;5071840;28;20045;-57
2022/01/16 07:56:29;;;;;;;51.42;27.80;;;;;;;2.03;100.00;102253.44;5071465;28;20087;-57
2022/01/16 07:58:57;;;;;;;57.90;29.45;;;;;;;2.01;100.00;102257.78;5071462;28;20063;-56
2022/01/16 08:01:26;;;;;;;54.30;28.35;;;;;;;2.01;100.00;102261.22;5070174;28;20045;-57
2022/01/16 08:03:54;;;;;;;52.08;28.23;;;;;;;2.06;100.00;102275.91;5071484;28;20110;-57
2022/01/16 08:06:22;;;;;;;50.78;29.45;;;;;;;2.06;100.00;102263.81;5071270;28;20044;-57
2022/01/16 08:08:50;;;;;;;55.97;28.83;;;;;;;2.06;100.00;102265.53;5071081;28;20458;-57
2022/01/16 08:11:18;;;;;;;50.40;26.67;;;;;;;2.09;100.00;102260.34;5071117;28;20044;-57
2022/01/16 08:13:48;;;;;;;59.33;29.55;;;;;;;2.11;100.00;102256.84;5070981;28;20052;-57
2022/01/16 08:16:16;;;;;;;56.15;29.98;;;;;;;2.09;100.00;102250.81;5071463;28;20056;-57
2022/01/16 08:18:44;;;;;;;53.25;26.98;;;;;;;2.15;100.00;102250.75;5071474;28;20214;-56
2022/01/16 08:21:12;;;;;;;51.45;27.33;;;;;;;2.21;100.00;102247.28;5071196;28;20155;-57
2022/01/16 08:23:40;;;;;;;51.20;27.30;;;;;;;2.20;100.00;102254.19;5071109;28;20064;-57
2022/01/16 08:26:08;;;;;;;55.53;27.58;;;;;;;2.20;100.00;102248.13;5071230;28;20442;-57
2022/01/16 08:28:36;;;;;;;55.55;28.23;;;;;;;2.25;100.00;102233.38;5071246;28;20045;-57
2022/01/16 08:31:06;;;;;;;47.65;24.85;;;;;;;2.37;100.00;102237.59;5071066;28;20098;-57
2022/01/16 08:33:34;;;;;;;50.20;28.45;;;;;;;2.34;100.00;102241.06;5071116;28;20074;-57
2022/01/16 08:36:04;;;;;;;49.60;26.13;;;;;;;2.34;100.00;102243.66;5071114;28;20390;-57
2022/01/16 08:38:33;;;;;;;47.03;26.80;;;;;;;2.35;100.00;102231.56;5071393;28;20072;-57
2022/01/16 08:41:03;;;;;;;48.90;26.42;;;;;;;2.43;100.00;102229.75;5074663;28;20503;-56
2022/01/16 08:43:31;;;;;;;52.22;25.98;;;;;;;2.40;100.00;102235.00;5074820;28;20071;-57
2022/01/16 08:46:00;;;;;;;51.60;26.13;;;;;;;2.46;100.00;102247.06;5074752;28;20110;-57
2022/01/16 08:48:30;;;;;;;49.47;26.23;;;;;;;2.51;100.00;102251.34;5074836;28;20044;-57
2022/01/16 08:50:58;;;;;;;48.45;26.23;;;;;;;2.56;100.00;102256.47;5074526;28;20513;-57
2022/01/16 08:53:26;;;;;;;50.63;26.00;;;;;;;2.60;100.00;102247.78;5074671;28;20348;-57
2022/01/16 08:55:54;;;;;;;45.10;25.38;;;;;;;2.64;100.00;102259.84;5074381;28;20053;-57
2022/01/16 08:58:22;;;;;;;45.15;24.80;;;;;;;2.63;100.00;102265.06;5074727;28;20122;-56
2022/01/16 09:00:50;;;;;;;42.25;24.80;;;;;;;2.67;100.00;102264.16;5074312;28;20044;-56
2022/01/16 09:03:19;;;;;;;44.10;24.10;;;;;;;2.78;100.00;102270.16;5074664;28;20102;-57
2022/01/16 09:05:49;;;;;;;46.63;23.52;;;;;;;2.78;100.00;102274.47;5074345;28;20179;-57
2022/01/16 09:08:18;;;;;;;40.70;23.13;;;;;;;2.78;100.00;102277.06;5074462;28;20049;-57
2022/01/16 09:10:46;;;;;;;40.72;23.55;;;;;;;2.82;100.00;102279.63;5074289;28;20044;-57
2022/01/16 09:13:16;;;;;;;43.25;23.25;;;;;;;2.90;100.00;102276.09;5074023;28;20092;-56
2022/01/16 09:15:45;;;;;;;41.97;23.45;;;;;;;2.90;100.00;102273.50;5072584;28;20052;-57
2022/01/16 09:18:13;;;;;;;43.28;22.90;;;;;;;2.95;100.00;102274.31;5074286;28;20044;-57
2022/01/16 09:20:42;;;;;;;40.28;23.65;;;;;;;2.96;100.00;102276.88;5073926;28;20082;-56
2022/01/16 09:23:12;;;;;;;40.47;22.63;;;;;;;2.99;100.00;102284.66;5074153;28;20048;-57
2022/01/16 09:25:40;;;;;;;38.75;22.27;;;;;;;3.00;100.00;102283.78;5072642;28;20081;-57
2022/01/16 09:28:09;;;;;;;42.42;22.85;;;;;;;3.06;100.00;102282.84;5073903;28;20048;-56
2022/01/16 09:30:37;;;;;;;39.25;22.42;;;;;;;3.04;100.00;102285.47;5073769;28;20043;-57
2022/01/16 09:33:05;;;;;;;42.67;22.90;;;;;;;3.14;100.00;102282.78;5073859;28;20487;-57
2022/01/16 09:35:33;;;;;;;45.35;23.95;;;;;;;3.15;100.00;102287.06;5073352;28;20054;-55
2022/01/16 09:38:02;;;;;;;40.75;22.13;;;;;;;3.20;100.00;102301.78;5073221;28;20047;-56
2022/01/16 09:40:31;;;;;;;41.33;22.42;;;;;;;3.25;100.00;102293.06;5073565;28;20497;-57
2022/01/16 09:42:59;;;;;;;46.67;23.20;;;;;;;3.27;100.00;102299.94;5073487;28;20094;-57
2022/01/16 09:45:27;;;;;;;41.83;22.63;;;;;;;3.32;100.00;102305.94;5073822;28;20506;-57
2022/01/16 09:47:56;;;;;;;37.72;21.08;;;;;;;3.34;100.00;102306.81;5073664;28;20048;-56
2022/01/16 09:50:26;;;;;;;40.70;21.60;;;;;;;3.38;100.00;102307.63;5072966;28;20521;-55
2022/01/16 09:52:55;;;;;;;43.78;22.58;;;;;;;3.40;100.00;102310.22;5073727;28;20086;-57
2022/01/16 09:55:24;;;;;;;39.75;21.75;;;;;;;3.41;100.00;102306.72;5073730;28;20433;-57
2022/01/16 09:57:55;;;;;;;42.00;22.98;;;;;;;3.41;100.00;102309.31;5073371;28;20403;-55
2022/01/16 10:00:25;;;;;;;43.95;22.45;;;;;;;3.47;100.00;102320.53;5073413;28;20048;-57
2022/01/16 10:02:54;;;;;;;40.28;21.52;;;;;;;3.50;100.00;102320.47;5073194;28;20098;-57
2022/01/16 10:05:26;;;;;;;44.17;22.77;;;;;;;3.51;100.00;102319.59;5073159;28;20039;-56
2022/01/16 10:07:55;;;;;;;42.30;24.08;;;;;;;3.55;100.00;102329.09;5073426;28;20728;-56
2022/01/16 10:10:28;;;;;;;42.90;22.77;;;;;;;3.59;100.00;102326.47;5073150;28;20045;-57
2022/01/16 10:13:05;;;;;;;40.75;22.52;;;;;;;3.63;100.00;102342.03;5072757;28;20499;-56
2022/01/16 10:15:34;;;;;;;48.97;22.08;;;;;;;3.68;100.00;102349.75;5073049;28;20516;-57
2022/01/16 10:18:06;;;;;;;42.70;22.50;;;;;;;3.74;100.00;102349.69;5072821;28;20130;-56
2022/01/16 10:20:42;;;;;;;42.78;22.15;;;;;;;3.73;100.00;102353.16;5053113;28;20053;-56
2022/01/16 10:23:17;;;;;;;43.25;22.10;;;;;;;3.81;100.00;102353.94;5058598;28;20041;-57
2022/01/16 10:25:48;;;;;;;48.08;22.20;;;;;;;3.81;100.00;102358.28;5053380;28;21009;-56
2022/01/16 10:28:20;;;;;;;44.30;22.05;;;;;;;3.77;100.00;102354.84;5058156;28;20049;-57
2022/01/16 10:30:50;;;;;;;46.63;23.27;;;;;;;3.78;100.00;102361.78;5054962;28;20052;-56
2022/01/16 10:33:20;;;;;;;49.22;23.63;;;;;;;3.83;100.00;102361.72;5051916;28;20040;-56
2022/01/16 10:35:51;;;;;;;50.97;25.17;;;;;;;3.80;100.00;102369.56;5052103;28;20048;-56
2022/01/16 10:38:21;;;;;;;48.08;24.63;;;;;;;3.81;100.00;102369.56;5052459;28;20045;-57
2022/01/16 10:40:51;;;;;;;55.17;23.63;;;;;;;3.88;100.00;102362.53;5052454;28;20051;-56
2022/01/16 10:43:22;;;;;;;55.35;24.80;;;;;;;3.87;100.00;102366.88;5052614;28;20056;-57
2022/01/16 10:45:59;;;;;;;54.55;25.90;;;;;;;3.83;100.00;102361.72;5052418;28;20048;-56
2022/01/16 10:48:47;;;;;;;46.38;24.10;;;;;;;3.86;100.00;102365.16;5050883;28;20052;-57
2022/01/16 10:51:20;;;;;;;56.78;27.77;;;;;;;3.88;100.00;102370.34;5052304;28;20049;-57
2022/01/16 10:53:48;;;;;;;59.85;25.90;;;;;;;3.91;100.00;102367.69;5052276;28;20388;-57
2022/01/16 10:56:16;;;;;;;53.95;27.83;;;;;;;3.94;100.00;102367.66;5052099;28;20376;-56
2022/01/16 10:58:47;;;;;;;51.72;26.33;;;;;;;3.92;100.00;102368.56;5051899;28;20049;-55
2022/01/16 11:01:19;;;;;;;57.45;26.73;;;;;;;3.98;100.00;102369.34;5051341;28;20044;-56
2022/01/16 11:03:49;;;;;;;65.57;28.38;;;;;;;3.97;100.00;102362.41;5051764;28;20170;-56
2022/01/16 11:06:21;;;;;;;58.92;28.98;;;;;;;3.91;100.00;102366.84;5067784;28;20052;-56
2022/01/16 11:08:51;;;;;;;57.25;27.92;;;;;;;3.95;100.00;102368.53;5070127;28;20052;-56
2022/01/16 11:11:20;;;;;;;58.28;28.25;;;;;;;4.02;100.00;102370.16;5067662;28;20048;-56
2022/01/16 11:13:50;;;;;;;63.33;30.20;;;;;;;3.93;100.00;102371.16;5069651;28;20048;-56
2022/01/16 11:16:18;;;;;;;71.57;29.98;;;;;;;3.97;100.00;102377.19;5070553;28;20044;-57
2022/01/16 11:18:50;;;;;;;65.47;30.23;;;;;;;3.95;100.00;102378.94;5070137;28;20068;-56
2022/01/16 11:21:30;;;;;;;60.72;27.88;;;;;;;3.96;100.00;102375.47;5070158;28;20051;-56
2022/01/16 11:24:22;;;;;;;55.65;27.63;;;;;;;4.00;100.00;102382.34;5069959;28;20040;-57
2022/01/16 11:26:51;;;;;;;67.03;29.15;;;;;;;4.01;100.00;102378.88;5071226;28;20601;-56
2022/01/16 11:29:21;;;;;;;64.78;29.77;;;;;;;4.02;100.00;102376.25;5071807;28;20543;-56
2022/01/16 11:31:50;;;;;;;64.15;30.00;;;;;;;4.05;100.00;102385.75;5072034;28;20542;-56
2022/01/16 11:34:18;;;;;;;60.10;30.17;;;;;;;4.09;100.00;102381.34;5071828;28;20356;-57
2022/01/16 11:36:46;;;;;;;63.42;29.30;;;;;;;4.12;100.00;102378.69;5071590;28;20431;-56
2022/01/16 11:39:15;;;;;;;59.28;28.58;;;;;;;4.05;100.00;102377.94;5070872;28;20052;-55
2022/01/16 11:41:52;;;;;;;71.78;30.92;;;;;;;4.07;100.00;102384.81;5071629;28;20059;-57
2022/01/16 11:44:27;;;;;;;67.78;29.17;;;;;;;4.04;100.00;102371.84;5070467;28;20067;-57
2022/01/16 11:46:58;;;;;;;72.97;29.58;;;;;;;4.09;100.00;102373.53;5071536;28;20037;-57
2022/01/16 11:49:33;;;;;;;63.95;29.05;;;;;;;4.14;100.00;102363.94;5071762;28;20720;-57
2022/01/16 11:52:09;;;;;;;64.57;27.50;;;;;;;4.05;100.00;102375.34;5069161;28;20095;-57
2022/01/16 11:54:43;;;;;;;68.38;30.95;;;;;;;4.07;100.00;102377.00;5051665;28;20037;-56